createdAt,value
2023-03-22T00:02:03.927Z,5.33
2023-03-22T00:04:30.315Z,5.57
2023-03-22T00:06:56.680Z,5.48
2023-03-22T00:09:23.035Z,5.67
2023-03-22T00:11:49.448Z,5.47
2023-03-22T00:14:15.845Z,5.36
2023-03-22T00:16:42.260Z,5.21
2023-03-22T00:19:08.628Z,5.83
2023-03-22T00:21:34.974Z,6.28
2023-03-22T00:24:01.325Z,6.26
2023-03-22T00:26:27.677Z,6.08
2023-03-22T00:28:54.039Z,5.52
2023-03-22T00:31:20.420Z,6.13
2023-03-22T00:33:46.821Z,6.08
2023-03-22T00:36:13.211Z,5.59
2023-03-22T00:38:44.054Z,5.85
2023-03-22T00:41:10.737Z,5.95
2023-03-22T00:43:37.104Z,6.18
2023-03-22T00:46:03.516Z,5.84
2023-03-22T00:48:29.942Z,5.92
2023-03-22T00:50:56.298Z,5.80
2023-03-22T00:53:22.680Z,5.74
2023-03-22T00:55:49.080Z,5.92
2023-03-22T00:58:15.452Z,5.74
2023-03-22T01:00:42.089Z,5.83
2023-03-22T01:03:08.754Z,5.90
2023-03-22T01:05:35.207Z,5.85
2023-03-22T01:08:01.568Z,5.53
2023-03-22T01:10:27.959Z,5.56
2023-03-22T01:12:54.325Z,5.60
2023-03-22T01:15:20.665Z,5.69
2023-03-22T01:17:47.062Z,5.25
2023-03-22T01:20:13.418Z,5.40
2023-03-22T01:22:40.048Z,5.29
2023-03-22T01:25:06.404Z,5.25
2023-03-22T01:27:32.748Z,5.29
2023-03-22T01:29:59.126Z,5.20
2023-03-22T01:32:25.488Z,4.92
2023-03-22T01:34:51.855Z,5.22
2023-03-22T01:37:18.241Z,4.85
2023-03-22T01:39:44.628Z,5.25
2023-03-22T01:42:11.028Z,5.30
2023-03-22T01:44:37.421Z,4.86
2023-03-22T01:47:03.894Z,5.12
2023-03-22T01:49:30.367Z,5.31
2023-03-22T01:51:56.771Z,5.51
2023-03-22T01:54:23.170Z,6.12
2023-03-22T01:56:49.522Z,6.79
2023-03-22T01:59:15.859Z,5.91
2023-03-22T02:01:42.254Z,5.80
2023-03-22T02:04:08.658Z,5.96
2023-03-22T02:06:35.017Z,6.06
2023-03-22T02:09:01.404Z,5.67
2023-03-22T02:11:27.756Z,5.52
2023-03-22T02:13:54.102Z,6.42
2023-03-22T02:16:20.527Z,6.14
2023-03-22T02:18:46.930Z,5.67
2023-03-22T02:21:13.289Z,5.20
2023-03-22T02:23:39.676Z,5.08
2023-03-22T02:26:06.080Z,5.01
2023-03-22T02:28:32.439Z,4.75
2023-03-22T02:30:58.789Z,4.91
2023-03-22T02:33:25.205Z,5.11
2023-03-22T02:35:51.616Z,4.80
2023-03-22T02:38:18.062Z,4.64
2023-03-22T02:40:44.472Z,4.72
2023-03-22T02:43:10.899Z,4.98
2023-03-22T02:45:37.314Z,4.63
2023-03-22T02:48:03.729Z,5.08
2023-03-22T02:50:30.129Z,4.97
2023-03-22T02:52:56.525Z,4.74
2023-03-22T02:55:22.911Z,4.71
2023-03-22T02:57:49.262Z,4.51
2023-03-22T03:00:15.611Z,4.33
2023-03-22T03:02:41.996Z,4.78
2023-03-22T03:05:08.356Z,4.74
2023-03-22T03:07:34.725Z,4.79
2023-03-22T03:10:01.081Z,4.88
2023-03-22T03:12:27.470Z,4.86
2023-03-22T03:14:53.869Z,4.95
2023-03-22T03:17:20.213Z,4.78
2023-03-22T03:19:46.547Z,4.65
2023-03-22T03:22:12.926Z,4.33
2023-03-22T03:24:39.350Z,4.91
2023-03-22T03:27:05.752Z,4.97
2023-03-22T03:29:32.147Z,4.93
2023-03-22T03:31:58.529Z,5.08
2023-03-22T03:34:24.930Z,4.75
2023-03-22T03:36:51.287Z,4.68
2023-03-22T03:39:17.672Z,4.78
2023-03-22T03:41:44.029Z,4.78
2023-03-22T03:44:10.362Z,4.44
2023-03-22T03:46:36.689Z,4.43
2023-03-22T03:49:03.075Z,4.62
2023-03-22T03:51:29.427Z,4.57
2023-03-22T03:53:55.830Z,4.56
2023-03-22T03:56:22.199Z,4.72
2023-03-22T03:58:48.551Z,4.72
2023-03-22T04:01:14.891Z,4.70
2023-03-22T04:03:41.274Z,4.73
2023-03-22T04:06:07.665Z,4.65
2023-03-22T04:08:34.010Z,4.59
2023-03-22T04:11:00.400Z,4.46
2023-03-22T04:13:26.799Z,4.67
2023-03-22T04:15:53.190Z,4.53
2023-03-22T04:18:19.545Z,4.37
2023-03-22T04:20:45.892Z,4.37
2023-03-22T04:23:12.247Z,4.40
2023-03-22T04:25:38.651Z,4.57
2023-03-22T04:28:05.006Z,4.13
2023-03-22T04:30:31.364Z,3.99
2023-03-22T04:32:57.786Z,4.38
2023-03-22T04:35:24.263Z,4.31
2023-03-22T04:37:50.688Z,4.36
2023-03-22T04:40:17.176Z,4.14
2023-03-22T04:42:43.670Z,4.11
2023-03-22T04:45:10.055Z,4.03
2023-03-22T04:47:36.437Z,3.80
2023-03-22T04:50:02.842Z,4.04
2023-03-22T04:52:29.224Z,4.08
2023-03-22T04:54:55.582Z,4.32
2023-03-22T04:57:21.916Z,3.96
2023-03-22T04:59:48.255Z,3.55
2023-03-22T05:02:14.621Z,3.87
2023-03-22T05:04:41.031Z,3.94
2023-03-22T05:07:07.422Z,4.22
2023-03-22T05:09:33.825Z,4.12
2023-03-22T05:12:00.221Z,4.22
2023-03-22T05:14:26.667Z,4.42
2023-03-22T05:16:53.120Z,4.14
2023-03-22T05:19:19.599Z,4.44
2023-03-22T05:21:45.934Z,4.13
2023-03-22T05:24:12.330Z,4.23
2023-03-22T05:26:38.683Z,4.29
2023-03-22T05:29:05.029Z,4.17
2023-03-22T05:31:31.438Z,4.29
2023-03-22T05:33:57.850Z,4.46
2023-03-22T05:36:24.210Z,4.47
2023-03-22T05:38:50.593Z,4.21
2023-03-22T05:41:16.997Z,4.09
2023-03-22T05:43:43.375Z,4.23
2023-03-22T05:46:09.769Z,4.34
2023-03-22T05:48:36.128Z,4.14
2023-03-22T05:51:02.480Z,4.24
2023-03-22T05:53:28.823Z,4.35
2023-03-22T05:55:55.163Z,4.01
2023-03-22T05:58:21.536Z,4.02
2023-03-22T06:00:47.924Z,4.97
2023-03-22T06:03:16.819Z,5.59
2023-03-22T06:05:43.377Z,5.77
2023-03-22T06:08:09.758Z,5.25
2023-03-22T06:10:36.177Z,5.06
2023-03-22T06:13:02.595Z,4.49
2023-03-22T06:15:28.974Z,4.40
2023-03-22T06:17:55.364Z,5.12
2023-03-22T06:20:21.750Z,4.85
2023-03-22T06:22:48.109Z,5.00
2023-03-22T06:25:14.476Z,4.99
2023-03-22T06:27:40.833Z,4.95
2023-03-22T06:30:07.204Z,4.74
2023-03-22T06:32:33.551Z,4.42
2023-03-22T06:34:59.878Z,4.74
2023-03-22T06:37:26.208Z,4.49
2023-03-22T06:39:52.667Z,4.75
2023-03-22T06:42:19.030Z,4.78
2023-03-22T06:44:45.370Z,4.88
2023-03-22T06:47:11.761Z,5.19
2023-03-22T06:49:38.192Z,5.25
2023-03-22T06:52:04.559Z,5.19
2023-03-22T06:54:30.894Z,4.74
2023-03-22T06:56:57.281Z,4.92
2023-03-22T06:59:23.775Z,5.29
2023-03-22T07:01:50.116Z,5.27
2023-03-22T07:04:16.567Z,5.15
2023-03-22T07:06:43.003Z,4.71
2023-03-22T07:09:09.359Z,4.58
2023-03-22T07:11:35.754Z,4.69
2023-03-22T07:14:02.171Z,4.34
2023-03-22T07:16:28.542Z,4.20
2023-03-22T07:18:54.987Z,3.87
2023-03-22T07:21:21.373Z,4.18
2023-03-22T07:23:47.773Z,3.98
2023-03-22T07:26:14.120Z,3.98
2023-03-22T07:28:40.498Z,3.86
2023-03-22T07:31:06.854Z,3.75
2023-03-22T07:33:33.231Z,4.10
2023-03-22T07:35:59.631Z,3.79
2023-03-22T07:38:26.014Z,3.55
2023-03-22T07:40:52.393Z,3.64
2023-03-22T07:43:18.742Z,3.60
2023-03-22T07:45:45.126Z,3.45
2023-03-22T07:48:11.597Z,3.40
2023-03-22T07:50:38.298Z,3.29
2023-03-22T07:53:04.850Z,3.07
2023-03-22T07:55:31.203Z,3.18
2023-03-22T07:57:57.577Z,3.29
2023-03-22T08:00:23.962Z,3.24
2023-03-22T08:02:50.327Z,3.36
2023-03-22T08:05:16.718Z,3.42
2023-03-22T08:07:43.176Z,3.59
2023-03-22T08:10:09.529Z,3.57
2023-03-22T08:12:35.907Z,3.50
2023-03-22T08:15:02.250Z,3.54
2023-03-22T08:17:28.640Z,3.39
2023-03-22T08:19:55.021Z,3.71
2023-03-22T08:22:21.367Z,3.30
2023-03-22T08:24:47.751Z,3.43
2023-03-22T08:27:14.108Z,3.40
2023-03-22T08:29:40.497Z,3.47
2023-03-22T08:32:06.964Z,4.01
2023-03-22T08:34:33.334Z,5.22
2023-03-22T08:36:59.714Z,5.70
2023-03-22T08:39:26.222Z,6.66
2023-03-22T08:41:53.390Z,6.36
2023-03-22T08:44:19.779Z,5.94
2023-03-22T08:46:46.130Z,6.17
2023-03-22T08:49:12.467Z,7.25
2023-03-22T08:51:38.839Z,6.64
2023-03-22T08:54:05.247Z,5.46
2023-03-22T08:56:31.599Z,6.11
2023-03-22T08:58:58.060Z,5.27
2023-03-22T09:01:27.819Z,4.98
2023-03-22T09:03:54.222Z,4.95
2023-03-22T09:06:20.551Z,4.50
2023-03-22T09:08:46.934Z,4.28
2023-03-22T09:11:13.286Z,4.20
2023-03-22T09:13:39.672Z,4.17
2023-03-22T09:16:06.068Z,3.82
2023-03-22T09:18:32.482Z,4.02
2023-03-22T09:20:58.828Z,3.95
2023-03-22T09:23:25.227Z,3.61
2023-03-22T09:25:51.610Z,3.75
2023-03-22T09:28:18.025Z,3.74
2023-03-22T09:30:44.454Z,3.93
2023-03-22T09:33:10.874Z,3.93
2023-03-22T09:35:37.328Z,4.04
2023-03-22T09:38:03.744Z,4.18
2023-03-22T09:40:30.153Z,4.49
2023-03-22T09:42:56.515Z,4.05
2023-03-22T09:45:22.912Z,3.44
2023-03-22T09:47:49.372Z,3.43
2023-03-22T09:50:15.765Z,3.32
2023-03-22T09:52:42.156Z,3.30
2023-03-22T09:55:08.510Z,3.36
2023-03-22T09:57:34.850Z,3.10
2023-03-22T10:00:01.252Z,2.96
2023-03-22T10:02:27.677Z,3.15
2023-03-22T10:04:54.080Z,3.19
2023-03-22T10:07:20.469Z,3.38
2023-03-22T10:09:46.822Z,3.69
2023-03-22T10:12:13.211Z,3.40
2023-03-22T10:14:39.612Z,3.25
2023-03-22T10:17:05.959Z,2.96
2023-03-22T10:19:32.305Z,2.98
2023-03-22T10:21:58.707Z,3.17
2023-03-22T10:24:25.085Z,3.03
2023-03-22T10:26:51.470Z,3.08
2023-03-22T10:29:17.849Z,2.92
2023-03-22T10:31:44.298Z,3.03
2023-03-22T10:34:10.768Z,2.63
2023-03-22T10:36:37.162Z,2.97
2023-03-22T10:39:03.504Z,3.21
2023-03-22T10:41:29.877Z,3.30
2023-03-22T10:43:56.223Z,3.37
2023-03-22T10:46:22.648Z,3.50
2023-03-22T10:48:49.052Z,3.55
2023-03-22T10:51:15.447Z,3.87
2023-03-22T10:53:41.833Z,3.95
2023-03-22T10:56:08.229Z,3.63
2023-03-22T10:58:34.635Z,3.58
2023-03-22T11:01:01.107Z,3.40
2023-03-22T11:03:27.675Z,3.35
2023-03-22T11:05:54.061Z,3.48
2023-03-22T11:08:20.411Z,3.81
2023-03-22T11:10:46.824Z,3.78
2023-03-22T11:13:13.253Z,4.12
2023-03-22T11:15:39.849Z,3.46
2023-03-22T11:18:06.382Z,3.46
2023-03-22T11:20:32.842Z,2.99
2023-03-22T11:22:59.219Z,3.33
2023-03-22T11:25:25.561Z,2.99
2023-03-22T11:27:51.906Z,3.17
2023-03-22T11:30:18.284Z,3.03
2023-03-22T11:32:44.672Z,3.08
2023-03-22T11:35:11.055Z,2.94
2023-03-22T11:37:37.429Z,2.83
2023-03-22T11:40:03.815Z,2.57
2023-03-22T11:42:30.164Z,2.98
2023-03-22T11:44:56.519Z,3.28
2023-03-22T11:47:22.882Z,3.19
2023-03-22T11:49:49.295Z,3.16
2023-03-22T11:52:15.673Z,3.44
2023-03-22T11:54:42.024Z,3.49
2023-03-22T11:57:08.368Z,3.49
2023-03-22T11:59:34.710Z,3.70
2023-03-22T12:02:01.083Z,3.43
2023-03-22T12:04:27.498Z,3.07
2023-03-22T12:06:53.883Z,3.07
2023-03-22T12:09:20.262Z,3.15
2023-03-22T12:11:46.614Z,3.05
2023-03-22T12:14:13.000Z,3.03
2023-03-22T12:16:39.513Z,2.88
2023-03-22T12:19:05.912Z,2.98
2023-03-22T12:21:32.257Z,3.08
2023-03-22T12:23:58.617Z,2.82
2023-03-22T12:26:24.948Z,2.95
2023-03-22T12:28:51.332Z,3.09
2023-03-22T12:31:17.754Z,3.13
2023-03-22T12:33:44.125Z,3.10
2023-03-22T12:36:10.540Z,3.03
2023-03-22T12:38:36.899Z,3.04
2023-03-22T12:41:03.246Z,3.16
2023-03-22T12:43:29.584Z,3.19
2023-03-22T12:45:55.915Z,3.15
2023-03-22T12:48:22.336Z,3.04
2023-03-22T12:50:48.819Z,3.25
2023-03-22T12:53:15.178Z,3.25
2023-03-22T12:55:41.655Z,3.44
2023-03-22T12:58:08.121Z,3.11
2023-03-22T13:00:34.570Z,2.89
2023-03-22T13:03:01.315Z,3.08
2023-03-22T13:05:27.720Z,3.05
2023-03-22T13:07:54.094Z,2.95
2023-03-22T13:10:20.465Z,3.21
2023-03-22T13:12:46.849Z,3.30
2023-03-22T13:15:13.207Z,3.56
2023-03-22T13:17:39.646Z,3.68
2023-03-22T13:20:06.084Z,3.69
2023-03-22T13:22:32.469Z,3.56
2023-03-22T13:24:58.822Z,3.08
2023-03-22T13:27:25.231Z,3.02
2023-03-22T13:29:51.583Z,3.30
2023-03-22T13:32:18.019Z,3.46
2023-03-22T13:34:44.455Z,3.47
2023-03-22T13:37:10.827Z,3.37
2023-03-22T13:39:37.465Z,3.58
2023-03-22T13:42:03.922Z,3.32
2023-03-22T13:44:30.311Z,3.42
2023-03-22T13:46:56.655Z,3.38
2023-03-22T13:49:23.043Z,3.69
2023-03-22T13:51:49.450Z,3.63
2023-03-22T13:54:15.811Z,3.96
2023-03-22T13:56:42.193Z,4.16
2023-03-22T13:59:08.559Z,3.56
2023-03-22T14:01:35.072Z,3.82
2023-03-22T14:04:01.587Z,3.78
2023-03-22T14:06:27.931Z,3.82
2023-03-22T14:08:54.439Z,3.76
2023-03-22T14:11:20.782Z,3.71
2023-03-22T14:13:47.195Z,3.90
2023-03-22T14:16:13.614Z,3.50
2023-03-22T14:18:40.002Z,3.41
2023-03-22T14:21:06.413Z,3.20
